Time;durP1;ratioP1;P1;durP2;ratioP2;P2;SDS_P1;SDS_P2;PMS_P1;PMS_P2;Temp;Humidity;BMP_temperature;BMP_pressure;BME280_temperature;BME280_humidity;BME280_pressure;Samples;Min_cycle;Max_cycle;Signal;HPM_P1;HPM_P2
2022/09/25 19:35:22;;;;;;;;;;;11.40;99.90;;;;;;6284288;22;19934;-75
2022/09/25 19:41:25;;;;;;;;;;;11.40;99.90;;;;;;6212974;22;19914;-75
2022/09/25 19:53:15;;;;;;;;;;;11.50;99.90;;;;;;6280329;22;19961;-75
2022/09/25 19:55:51;;;;;;;;;;;11.50;99.90;;;;;;6281439;22;20297;-78
2022/09/25 19:58:48;;;;;;;;;;;11.50;99.90;;;;;;6256961;22;19912;-78
2022/09/25 20:01:29;;;;;;;;;;;11.60;99.90;;;;;;6256024;22;20209;-79
2022/09/25 20:26:43;;;;;;;;;;;11.60;99.90;;;;;;6312950;22;20322;-79
2022/09/25 20:29:25;;;;;;;;;;;11.60;99.90;;;;;;6281211;22;19919;-74
2022/09/25 20:45:56;;;;;;;;;;;11.60;99.90;;;;;;6092852;23;19917;-75
2022/09/25 20:48:24;;;;;;;;;;;11.50;99.90;;;;;;6044027;23;19954;-74
2022/09/25 20:51:10;;;;;;;;;;;11.60;99.90;;;;;;6045877;23;19984;-75
2022/09/25 20:54:17;;;;;;;;;;;11.50;99.90;;;;;;6071220;23;20285;-73
2022/09/25 20:57:10;;;;;;;;;;;11.50;99.90;;;;;;6045278;23;20372;-77
2022/09/25 21:48:12;;;;;;;;;;;11.30;99.90;;;;;;6290894;22;19915;-75
2022/09/25 21:50:37;;;;;;;;;;;11.20;99.90;;;;;;6280245;22;19925;-76
2022/09/25 21:53:05;;;;;;;;;;;11.30;99.90;;;;;;6279860;22;19989;-75
2022/09/25 21:55:34;;;;;;;;;;;11.30;99.90;;;;;;6279857;22;19949;-76
2022/09/25 21:58:05;;;;;;;;;;;11.30;99.90;;;;;;6278792;22;19913;-78
2022/09/25 22:00:34;;;;;;;;;;;11.30;99.90;;;;;;6255589;22;19965;-74
2022/09/25 22:03:03;;;;;;;;;;;11.30;99.90;;;;;;6253787;22;19915;-76
2022/09/25 22:05:34;;;;;;;;;;;11.30;99.90;;;;;;6254408;22;19985;-75
2022/09/25 22:07:59;;;;;;;;;;;11.30;99.90;;;;;;6253320;22;19918;-77
2022/09/25 22:10:37;;;;;;;;;;;11.20;99.90;;;;;;6253593;22;20225;-74
2022/09/25 22:13:06;;;;;;;;;;;11.30;99.90;;;;;;6254217;22;19910;-73
2022/09/25 22:15:40;;;;;;;;;;;11.30;99.90;;;;;;6280161;22;20359;-76
2022/09/25 22:18:08;;;;;;;;;;;11.20;99.90;;;;;;6256306;22;19914;-75
2022/09/25 22:20:45;;;;;;;;;;;11.30;99.90;;;;;;6257163;22;19960;-74
2022/09/25 22:23:11;;;;;;;;;;;11.30;99.90;;;;;;6256124;22;19958;-75
2022/09/25 22:28:41;;;;;;;;;;;11.20;99.90;;;;;;6299678;22;19911;-74
2022/09/25 22:31:15;;;;;;;;;;;11.20;99.90;;;;;;6257071;22;19917;-75
2022/09/25 22:33:53;;;;;;;;;;;11.20;99.90;;;;;;6256805;22;19963;-74
2022/09/25 22:39:37;;;;;;;;;;;11.20;99.90;;;;;;6307455;22;19947;-76
2022/09/25 22:42:17;;;;;;;;;;;11.20;99.90;;;;;;6256367;22;19917;-77
2022/09/25 22:44:54;;;;;;;;;;;11.30;99.90;;;;;;6257231;22;20238;-77
2022/09/25 22:47:20;;;;;;;;;;;11.30;99.90;;;;;;6249836;22;19916;-75
2022/09/25 22:49:57;;;;;;;;;;;11.30;99.90;;;;;;6251216;22;19973;-77
2022/09/25 22:52:38;;;;;;;;;;;11.60;99.90;;;;;;6252214;22;19926;-77
2022/09/25 22:55:06;;;;;;;;;;;11.30;99.90;;;;;;6225151;22;20284;-76
2022/09/25 22:57:44;;;;;;;;;;;11.40;99.90;;;;;;6251012;22;19911;-75
2022/09/25 23:00:22;;;;;;;;;;;11.30;99.90;;;;;;6275820;22;20281;-75
2022/09/25 23:02:51;;;;;;;;;;;11.40;99.90;;;;;;6251455;22;19918;-77
2022/09/25 23:05:25;;;;;;;;;;;11.40;99.90;;;;;;6252548;22;19934;-76
2022/09/25 23:08:10;;;;;;;;;;;;;;;;;;;;;
2022/09/25 23:10:44;;;;;;;;;;;11.50;99.90;;;;;;6247464;22;19961;-76
2022/09/25 23:13:16;;;;;;;;;;;11.40;99.90;;;;;;6250268;22;19957;-78
2022/09/25 23:15:50;;;;;;;;;;;11.40;99.90;;;;;;6241669;22;19960;-77
2022/09/25 23:18:33;;;;;;;;;;;11.50;99.90;;;;;;6272791;22;19911;-77
2022/09/25 23:21:16;;;;;;;;;;;11.60;99.90;;;;;;6249231;22;20313;-76
2022/09/25 23:23:48;;;;;;;;;;;11.50;99.90;;;;;;6275513;22;20313;-77
2022/09/25 23:26:19;;;;;;;;;;;11.50;99.90;;;;;;6276189;22;19965;-77
2022/09/25 23:28:53;;;;;;;;;;;11.50;99.90;;;;;;6250029;22;19911;-78
2022/09/25 23:31:22;;;;;;;;;;;11.50;99.90;;;;;;6250425;22;19935;-77
2022/09/25 23:33:48;;;;;;;;;;;11.60;99.90;;;;;;6250430;22;19923;-79
2022/09/25 23:36:21;;;;;;;;;;;11.50;99.90;;;;;;6251405;22;20318;-76
2022/09/25 23:39:04;;;;;;;;;;;11.60;99.90;;;;;;6250857;22;20623;-75
2022/09/25 23:41:34;;;;;;;;;;;11.60;99.90;;;;;;6250907;22;19966;-77
2022/09/25 23:44:04;;;;;;;;;;;11.60;99.90;;;;;;6251446;22;19918;-77
2022/09/25 23:46:31;;;;;;;;;;;11.60;99.90;;;;;;6275744;22;19926;-77
2022/09/25 23:49:04;;;;;;;;;;;11.60;99.90;;;;;;6275258;22;19927;-77
2022/09/25 23:51:32;;;;;;;;;;;11.60;99.90;;;;;;6276295;22;19961;-77
2022/09/25 23:54:10;;;;;;;;;;;11.60;99.90;;;;;;6252365;22;20004;-77
2022/09/25 23:56:39;;;;;;;;;;;11.60;99.90;;;;;;6276064;22;19911;-77
2022/09/25 23:59:07;;;;;;;;;;;11.60;99.90;;;;;;6276283;22;19911;-77
